sensor_id;sensor_type;location;lat;lon;timestamp;temperature;humidity
51383;DHT22;37475;43.358;1.248;2023-05-10T00:01:32;12.80;91.30
51383;DHT22;37475;43.358;1.248;2023-05-10T00:03:58;12.70;91.40
51383;DHT22;37475;43.358;1.248;2023-05-10T00:06:23;12.70;91.70
51383;DHT22;37475;43.358;1.248;2023-05-10T00:08:49;12.70;91.80
51383;DHT22;37475;43.358;1.248;2023-05-10T00:11:15;12.60;92.30
51383;DHT22;37475;43.358;1.248;2023-05-10T00:13:41;12.60;92.50
51383;DHT22;37475;43.358;1.248;2023-05-10T00:16:06;12.50;92.50
51383;DHT22;37475;43.358;1.248;2023-05-10T00:18:32;12.50;92.70
51383;DHT22;37475;43.358;1.248;2023-05-10T00:20:58;12.60;92.80
51383;DHT22;37475;43.358;1.248;2023-05-10T00:23:24;12.60;92.90
51383;DHT22;37475;43.358;1.248;2023-05-10T00:25:49;12.60;92.90
51383;DHT22;37475;43.358;1.248;2023-05-10T00:28:15;12.60;92.70
51383;DHT22;37475;43.358;1.248;2023-05-10T00:30:41;12.60;92.60
51383;DHT22;37475;43.358;1.248;2023-05-10T00:33:07;12.60;92.70
51383;DHT22;37475;43.358;1.248;2023-05-10T00:35:32;12.60;92.70
51383;DHT22;37475;43.358;1.248;2023-05-10T00:37:59;12.60;92.80
51383;DHT22;37475;43.358;1.248;2023-05-10T00:40:25;12.60;92.90
51383;DHT22;37475;43.358;1.248;2023-05-10T00:42:51;12.60;93.00
51383;DHT22;37475;43.358;1.248;2023-05-10T00:45:16;12.60;92.90
51383;DHT22;37475;43.358;1.248;2023-05-10T00:47:42;12.60;92.80
51383;DHT22;37475;43.358;1.248;2023-05-10T00:50:08;12.60;92.70
51383;DHT22;37475;43.358;1.248;2023-05-10T00:52:35;12.70;92.60
51383;DHT22;37475;43.358;1.248;2023-05-10T00:55:01;12.70;92.50
51383;DHT22;37475;43.358;1.248;2023-05-10T00:57:28;12.70;92.60
51383;DHT22;37475;43.358;1.248;2023-05-10T00:59:54;12.70;92.60
51383;DHT22;37475;43.358;1.248;2023-05-10T01:02:20;12.60;92.70
51383;DHT22;37475;43.358;1.248;2023-05-10T01:04:46;12.60;92.90
51383;DHT22;37475;43.358;1.248;2023-05-10T01:07:11;12.60;93.10
51383;DHT22;37475;43.358;1.248;2023-05-10T01:09:38;12.60;93.20
51383;DHT22;37475;43.358;1.248;2023-05-10T01:12:04;12.60;93.50
51383;DHT22;37475;43.358;1.248;2023-05-10T01:14:32;12.60;93.70
51383;DHT22;37475;43.358;1.248;2023-05-10T01:17:00;12.60;93.70
51383;DHT22;37475;43.358;1.248;2023-05-10T01:19:27;12.60;93.80
51383;DHT22;37475;43.358;1.248;2023-05-10T01:33:31;12.50;94.40
51383;DHT22;37475;43.358;1.248;2023-05-10T01:36:19;12.50;94.80
51383;DHT22;37475;43.358;1.248;2023-05-10T01:38:58;12.40;95.10
51383;DHT22;37475;43.358;1.248;2023-05-10T01:41:49;12.30;95.50
51383;DHT22;37475;43.358;1.248;2023-05-10T01:44:33;12.20;95.30
51383;DHT22;37475;43.358;1.248;2023-05-10T01:47:30;12.10;94.70
51383;DHT22;37475;43.358;1.248;2023-05-10T01:50:04;12.10;94.40
51383;DHT22;37475;43.358;1.248;2023-05-10T01:52:37;12.10;94.30
51383;DHT22;37475;43.358;1.248;2023-05-10T01:55:10;12.10;94.60
51383;DHT22;37475;43.358;1.248;2023-05-10T01:57:40;12.10;93.80
51383;DHT22;37475;43.358;1.248;2023-05-10T02:00:09;12.20;93.50
51383;DHT22;37475;43.358;1.248;2023-05-10T02:02:37;12.10;93.00
51383;DHT22;37475;43.358;1.248;2023-05-10T02:05:06;12.10;92.50
51383;DHT22;37475;43.358;1.248;2023-05-10T02:07:35;12.10;92.60
51383;DHT22;37475;43.358;1.248;2023-05-10T02:10:05;12.00;92.80
51383;DHT22;37475;43.358;1.248;2023-05-10T02:12:36;12.00;93.20
51383;DHT22;37475;43.358;1.248;2023-05-10T02:15:06;11.90;93.20
51383;DHT22;37475;43.358;1.248;2023-05-10T02:17:34;11.90;92.90
51383;DHT22;37475;43.358;1.248;2023-05-10T02:20:02;11.80;93.10
51383;DHT22;37475;43.358;1.248;2023-05-10T02:22:29;11.80;93.30
51383;DHT22;37475;43.358;1.248;2023-05-10T02:24:56;11.70;93.00
51383;DHT22;37475;43.358;1.248;2023-05-10T02:27:24;11.60;93.00
51383;DHT22;37475;43.358;1.248;2023-05-10T02:29:51;11.60;93.10
51383;DHT22;37475;43.358;1.248;2023-05-10T02:32:17;11.50;93.20
51383;DHT22;37475;43.358;1.248;2023-05-10T02:34:45;11.50;93.10
51383;DHT22;37475;43.358;1.248;2023-05-10T02:37:15;11.40;93.20
51383;DHT22;37475;43.358;1.248;2023-05-10T02:39:44;11.40;93.30
51383;DHT22;37475;43.358;1.248;2023-05-10T02:42:18;11.40;93.40
51383;DHT22;37475;43.358;1.248;2023-05-10T02:44:48;11.40;93.60
51383;DHT22;37475;43.358;1.248;2023-05-10T02:47:14;11.40;93.60
51383;DHT22;37475;43.358;1.248;2023-05-10T02:49:40;11.50;93.70
51383;DHT22;37475;43.358;1.248;2023-05-10T02:52:06;11.50;93.70
51383;DHT22;37475;43.358;1.248;2023-05-10T02:54:41;11.50;93.60
51383;DHT22;37475;43.358;1.248;2023-05-10T02:57:14;11.60;93.40
51383;DHT22;37475;43.358;1.248;2023-05-10T02:59:41;11.60;93.30
51383;DHT22;37475;43.358;1.248;2023-05-10T03:02:14;11.70;93.00
51383;DHT22;37475;43.358;1.248;2023-05-10T03:04:40;11.80;92.70
51383;DHT22;37475;43.358;1.248;2023-05-10T03:07:06;11.80;92.70
51383;DHT22;37475;43.358;1.248;2023-05-10T03:09:33;11.80;93.00
51383;DHT22;37475;43.358;1.248;2023-05-10T03:12:22;11.70;93.30
51383;DHT22;37475;43.358;1.248;2023-05-10T03:15:10;11.70;93.30
51383;DHT22;37475;43.358;1.248;2023-05-10T03:20:24;11.60;92.90
51383;DHT22;37475;43.358;1.248;2023-05-10T03:22:55;11.50;92.60
51383;DHT22;37475;43.358;1.248;2023-05-10T03:25:24;11.40;92.60
51383;DHT22;37475;43.358;1.248;2023-05-10T03:27:50;11.20;93.20
51383;DHT22;37475;43.358;1.248;2023-05-10T03:30:17;11.10;93.40
51383;DHT22;37475;43.358;1.248;2023-05-10T03:32:43;11.10;93.40
51383;DHT22;37475;43.358;1.248;2023-05-10T03:35:10;11.00;93.40
51383;DHT22;37475;43.358;1.248;2023-05-10T03:37:37;11.00;92.50
51383;DHT22;37475;43.358;1.248;2023-05-10T03:40:04;11.00;92.10
51383;DHT22;37475;43.358;1.248;2023-05-10T03:42:30;11.10;91.80
51383;DHT22;37475;43.358;1.248;2023-05-10T03:44:56;11.10;92.30
51383;DHT22;37475;43.358;1.248;2023-05-10T03:47:22;11.00;92.50
51383;DHT22;37475;43.358;1.248;2023-05-10T03:49:48;11.00;92.70
51383;DHT22;37475;43.358;1.248;2023-05-10T03:52:14;11.00;93.00
51383;DHT22;37475;43.358;1.248;2023-05-10T03:54:39;11.10;93.30
51383;DHT22;37475;43.358;1.248;2023-05-10T03:57:05;11.10;93.50
51383;DHT22;37475;43.358;1.248;2023-05-10T03:59:31;11.10;93.50
51383;DHT22;37475;43.358;1.248;2023-05-10T04:01:57;11.10;93.70
51383;DHT22;37475;43.358;1.248;2023-05-10T04:04:22;11.10;94.10
51383;DHT22;37475;43.358;1.248;2023-05-10T04:06:49;11.10;94.40
51383;DHT22;37475;43.358;1.248;2023-05-10T04:09:15;11.00;94.40
51383;DHT22;37475;43.358;1.248;2023-05-10T04:11:42;11.00;94.60
51383;DHT22;37475;43.358;1.248;2023-05-10T04:14:08;11.00;94.60
51383;DHT22;37475;43.358;1.248;2023-05-10T04:16:34;11.00;94.60
51383;DHT22;37475;43.358;1.248;2023-05-10T04:18:59;11.00;94.50
51383;DHT22;37475;43.358;1.248;2023-05-10T04:21:25;11.00;94.50
51383;DHT22;37475;43.358;1.248;2023-05-10T04:23:51;11.00;94.60
51383;DHT22;37475;43.358;1.248;2023-05-10T04:26:17;10.90;94.60
51383;DHT22;37475;43.358;1.248;2023-05-10T04:28:43;10.90;94.80
51383;DHT22;37475;43.358;1.248;2023-05-10T04:31:09;10.90;94.60
51383;DHT22;37475;43.358;1.248;2023-05-10T04:33:36;10.90;94.60
51383;DHT22;37475;43.358;1.248;2023-05-10T04:36:02;10.90;94.40
51383;DHT22;37475;43.358;1.248;2023-05-10T04:38:29;10.90;94.40
51383;DHT22;37475;43.358;1.248;2023-05-10T04:41:10;10.80;94.80
51383;DHT22;37475;43.358;1.248;2023-05-10T04:43:36;10.80;94.70
51383;DHT22;37475;43.358;1.248;2023-05-10T04:46:03;10.70;94.60
51383;DHT22;37475;43.358;1.248;2023-05-10T04:48:30;10.70;94.70
51383;DHT22;37475;43.358;1.248;2023-05-10T04:50:56;10.60;94.80
51383;DHT22;37475;43.358;1.248;2023-05-10T04:53:22;10.60;94.80
51383;DHT22;37475;43.358;1.248;2023-05-10T04:55:48;10.60;94.80
51383;DHT22;37475;43.358;1.248;2023-05-10T04:58:14;10.60;94.90
51383;DHT22;37475;43.358;1.248;2023-05-10T05:00:40;10.60;94.90
51383;DHT22;37475;43.358;1.248;2023-05-10T05:03:06;10.60;94.90
51383;DHT22;37475;43.358;1.248;2023-05-10T05:05:31;10.60;95.00
51383;DHT22;37475;43.358;1.248;2023-05-10T05:07:57;10.60;95.00
51383;DHT22;37475;43.358;1.248;2023-05-10T05:10:23;10.50;95.00
51383;DHT22;37475;43.358;1.248;2023-05-10T05:12:49;10.60;95.00
51383;DHT22;37475;43.358;1.248;2023-05-10T05:15:14;10.60;94.90
51383;DHT22;37475;43.358;1.248;2023-05-10T05:17:42;10.60;95.00
51383;DHT22;37475;43.358;1.248;2023-05-10T05:20:09;10.60;95.00
51383;DHT22;37475;43.358;1.248;2023-05-10T05:22:36;10.60;95.10
51383;DHT22;37475;43.358;1.248;2023-05-10T05:25:02;10.50;95.20
51383;DHT22;37475;43.358;1.248;2023-05-10T05:27:29;10.50;95.20
51383;DHT22;37475;43.358;1.248;2023-05-10T05:29:58;10.60;95.30
51383;DHT22;37475;43.358;1.248;2023-05-10T05:32:24;10.60;95.30
51383;DHT22;37475;43.358;1.248;2023-05-10T05:34:51;10.60;95.30
51383;DHT22;37475;43.358;1.248;2023-05-10T05:37:18;10.60;95.40
51383;DHT22;37475;43.358;1.248;2023-05-10T05:39:45;10.60;95.40
51383;DHT22;37475;43.358;1.248;2023-05-10T05:42:12;10.60;95.50
51383;DHT22;37475;43.358;1.248;2023-05-10T05:44:38;10.70;95.40
51383;DHT22;37475;43.358;1.248;2023-05-10T05:47:05;10.60;95.40
51383;DHT22;37475;43.358;1.248;2023-05-10T05:49:31;10.70;95.40
51383;DHT22;37475;43.358;1.248;2023-05-10T05:52:03;10.70;95.30
51383;DHT22;37475;43.358;1.248;2023-05-10T05:54:30;10.70;95.10
51383;DHT22;37475;43.358;1.248;2023-05-10T05:56:58;10.90;95.30
51383;DHT22;37475;43.358;1.248;2023-05-10T05:59:24;10.90;95.10
51383;DHT22;37475;43.358;1.248;2023-05-10T06:01:50;10.90;95.10
51383;DHT22;37475;43.358;1.248;2023-05-10T06:04:16;11.00;95.00
51383;DHT22;37475;43.358;1.248;2023-05-10T06:06:42;11.10;95.00
51383;DHT22;37475;43.358;1.248;2023-05-10T06:09:08;11.10;95.00
51383;DHT22;37475;43.358;1.248;2023-05-10T06:11:35;11.20;94.90
51383;DHT22;37475;43.358;1.248;2023-05-10T06:14:01;11.20;94.80
51383;DHT22;37475;43.358;1.248;2023-05-10T06:16:29;11.30;94.80
51383;DHT22;37475;43.358;1.248;2023-05-10T06:18:55;11.30;94.70
51383;DHT22;37475;43.358;1.248;2023-05-10T06:21:20;11.30;94.50
51383;DHT22;37475;43.358;1.248;2023-05-10T06:23:46;11.50;94.40
51383;DHT22;37475;43.358;1.248;2023-05-10T06:26:12;11.60;94.10
51383;DHT22;37475;43.358;1.248;2023-05-10T06:28:39;11.60;93.60
51383;DHT22;37475;43.358;1.248;2023-05-10T06:31:05;11.60;93.50
51383;DHT22;37475;43.358;1.248;2023-05-10T06:33:32;11.70;93.60
51383;DHT22;37475;43.358;1.248;2023-05-10T06:35:58;11.80;93.70
51383;DHT22;37475;43.358;1.248;2023-05-10T06:38:24;11.90;93.70
51383;DHT22;37475;43.358;1.248;2023-05-10T06:40:50;12.00;93.20
51383;DHT22;37475;43.358;1.248;2023-05-10T06:43:16;12.00;92.80
51383;DHT22;37475;43.358;1.248;2023-05-10T06:45:42;12.10;92.60
51383;DHT22;37475;43.358;1.248;2023-05-10T06:48:08;12.10;93.10
51383;DHT22;37475;43.358;1.248;2023-05-10T06:50:34;12.30;92.80
51383;DHT22;37475;43.358;1.248;2023-05-10T06:53:00;12.10;91.80
51383;DHT22;37475;43.358;1.248;2023-05-10T06:55:27;12.20;92.10
51383;DHT22;37475;43.358;1.248;2023-05-10T06:57:53;12.20;91.80
51383;DHT22;37475;43.358;1.248;2023-05-10T07:00:19;12.50;91.90
51383;DHT22;37475;43.358;1.248;2023-05-10T07:02:46;12.50;91.60
51383;DHT22;37475;43.358;1.248;2023-05-10T07:05:12;12.60;91.70
51383;DHT22;37475;43.358;1.248;2023-05-10T07:07:38;12.60;91.30
51383;DHT22;37475;43.358;1.248;2023-05-10T07:10:05;12.90;91.20
51383;DHT22;37475;43.358;1.248;2023-05-10T07:12:32;12.80;90.50
51383;DHT22;37475;43.358;1.248;2023-05-10T07:14:58;12.70;89.70
51383;DHT22;37475;43.358;1.248;2023-05-10T07:17:24;12.80;90.20
51383;DHT22;37475;43.358;1.248;2023-05-10T07:19:50;12.80;90.00
51383;DHT22;37475;43.358;1.248;2023-05-10T07:22:16;12.70;88.40
51383;DHT22;37475;43.358;1.248;2023-05-10T07:24:42;12.80;89.60
51383;DHT22;37475;43.358;1.248;2023-05-10T07:27:08;13.10;90.10
51383;DHT22;37475;43.358;1.248;2023-05-10T07:29:35;13.10;88.80
51383;DHT22;37475;43.358;1.248;2023-05-10T07:32:01;13.10;88.90
51383;DHT22;37475;43.358;1.248;2023-05-10T07:34:27;13.40;89.00
51383;DHT22;37475;43.358;1.248;2023-05-10T07:36:54;13.30;87.10
51383;DHT22;37475;43.358;1.248;2023-05-10T07:39:20;13.30;86.50
51383;DHT22;37475;43.358;1.248;2023-05-10T07:41:46;13.30;86.00
51383;DHT22;37475;43.358;1.248;2023-05-10T07:44:12;13.40;86.30
51383;DHT22;37475;43.358;1.248;2023-05-10T07:46:37;13.40;85.80
51383;DHT22;37475;43.358;1.248;2023-05-10T07:49:03;13.30;86.40
51383;DHT22;37475;43.358;1.248;2023-05-10T07:51:29;13.10;85.60
51383;DHT22;37475;43.358;1.248;2023-05-10T07:53:55;13.20;86.90
51383;DHT22;37475;43.358;1.248;2023-05-10T07:58:55;11.90;82.50
51383;DHT22;37475;43.358;1.248;2023-05-10T08:01:22;11.80;85.70
51383;DHT22;37475;43.358;1.248;2023-05-10T08:03:48;11.80;86.90
51383;DHT22;37475;43.358;1.248;2023-05-10T08:06:15;12.00;87.10
51383;DHT22;37475;43.358;1.248;2023-05-10T08:08:41;12.10;87.40
51383;DHT22;37475;43.358;1.248;2023-05-10T08:11:07;12.20;88.40
51383;DHT22;37475;43.358;1.248;2023-05-10T08:13:33;12.30;88.30
51383;DHT22;37475;43.358;1.248;2023-05-10T08:15:59;12.60;87.40
51383;DHT22;37475;43.358;1.248;2023-05-10T08:18:26;12.80;87.20
51383;DHT22;37475;43.358;1.248;2023-05-10T08:20:51;13.00;87.20
51383;DHT22;37475;43.358;1.248;2023-05-10T08:23:17;13.10;87.20
51383;DHT22;37475;43.358;1.248;2023-05-10T08:25:43;13.00;86.50
51383;DHT22;37475;43.358;1.248;2023-05-10T08:28:09;13.00;85.80
51383;DHT22;37475;43.358;1.248;2023-05-10T08:30:34;13.10;86.30
51383;DHT22;37475;43.358;1.248;2023-05-10T08:33:00;13.20;86.40
51383;DHT22;37475;43.358;1.248;2023-05-10T08:35:26;13.20;86.00
51383;DHT22;37475;43.358;1.248;2023-05-10T08:37:52;13.10;86.20
51383;DHT22;37475;43.358;1.248;2023-05-10T08:40:19;13.20;85.60
51383;DHT22;37475;43.358;1.248;2023-05-10T08:42:58;13.30;85.50
51383;DHT22;37475;43.358;1.248;2023-05-10T08:45:33;13.30;83.80
51383;DHT22;37475;43.358;1.248;2023-05-10T08:48:05;13.40;82.90
51383;DHT22;37475;43.358;1.248;2023-05-10T08:50:36;13.50;81.40
51383;DHT22;37475;43.358;1.248;2023-05-10T08:53:11;13.80;82.00
51383;DHT22;37475;43.358;1.248;2023-05-10T08:55:39;14.10;81.30
51383;DHT22;37475;43.358;1.248;2023-05-10T08:58:08;14.10;80.90
51383;DHT22;37475;43.358;1.248;2023-05-10T09:00:35;14.00;80.20
51383;DHT22;37475;43.358;1.248;2023-05-10T09:03:03;14.10;80.50
51383;DHT22;37475;43.358;1.248;2023-05-10T09:05:30;14.30;81.70
51383;DHT22;37475;43.358;1.248;2023-05-10T09:07:56;14.10;79.90
51383;DHT22;37475;43.358;1.248;2023-05-10T09:10:23;14.30;79.40
51383;DHT22;37475;43.358;1.248;2023-05-10T09:12:51;14.20;78.00
51383;DHT22;37475;43.358;1.248;2023-05-10T09:15:19;14.10;80.70
51383;DHT22;37475;43.358;1.248;2023-05-10T09:17:46;14.40;77.80
51383;DHT22;37475;43.358;1.248;2023-05-10T09:20:12;14.70;80.00
51383;DHT22;37475;43.358;1.248;2023-05-10T09:22:38;14.90;76.50
51383;DHT22;37475;43.358;1.248;2023-05-10T09:25:14;14.80;73.10
51383;DHT22;37475;43.358;1.248;2023-05-10T09:27:45;14.60;73.50
51383;DHT22;37475;43.358;1.248;2023-05-10T09:30:24;14.40;73.70
51383;DHT22;37475;43.358;1.248;2023-05-10T09:32:52;14.00;79.20
51383;DHT22;37475;43.358;1.248;2023-05-10T09:35:20;13.90;79.20
51383;DHT22;37475;43.358;1.248;2023-05-10T09:37:50;13.90;79.30
51383;DHT22;37475;43.358;1.248;2023-05-10T09:40:18;14.20;79.50
51383;DHT22;37475;43.358;1.248;2023-05-10T09:45:35;14.60;79.90
51383;DHT22;37475;43.358;1.248;2023-05-10T09:48:02;14.50;78.40
51383;DHT22;37475;43.358;1.248;2023-05-10T09:50:29;14.60;75.70
51383;DHT22;37475;43.358;1.248;2023-05-10T09:53:00;15.10;78.40
51383;DHT22;37475;43.358;1.248;2023-05-10T09:55:42;15.00;75.90
51383;DHT22;37475;43.358;1.248;2023-05-10T09:58:10;15.20;75.90
51383;DHT22;37475;43.358;1.248;2023-05-10T10:00:38;15.60;77.30
51383;DHT22;37475;43.358;1.248;2023-05-10T10:03:18;15.60;75.70
51383;DHT22;37475;43.358;1.248;2023-05-10T10:05:47;15.40;74.00
51383;DHT22;37475;43.358;1.248;2023-05-10T10:08:14;15.40;71.70
51383;DHT22;37475;43.358;1.248;2023-05-10T10:10:41;15.10;72.40
51383;DHT22;37475;43.358;1.248;2023-05-10T10:13:07;14.60;72.40
51383;DHT22;37475;43.358;1.248;2023-05-10T10:15:34;14.50;75.30
51383;DHT22;37475;43.358;1.248;2023-05-10T10:18:01;14.60;76.80
51383;DHT22;37475;43.358;1.248;2023-05-10T10:20:29;14.50;76.20
51383;DHT22;37475;43.358;1.248;2023-05-10T10:22:55;14.50;78.20
51383;DHT22;37475;43.358;1.248;2023-05-10T10:25:21;14.20;79.60
51383;DHT22;37475;43.358;1.248;2023-05-10T10:30:49;14.10;84.40
51383;DHT22;37475;43.358;1.248;2023-05-10T10:36:05;14.10;84.00
51383;DHT22;37475;43.358;1.248;2023-05-10T10:41:32;14.80;83.80
51383;DHT22;37475;43.358;1.248;2023-05-10T10:49:51;16.10;77.30
51383;DHT22;37475;43.358;1.248;2023-05-10T10:52:27;16.50;73.40
51383;DHT22;37475;43.358;1.248;2023-05-10T10:57:56;15.90;70.90
51383;DHT22;37475;43.358;1.248;2023-05-10T11:00:36;16.30;68.60
51383;DHT22;37475;43.358;1.248;2023-05-10T11:03:10;16.30;69.60
51383;DHT22;37475;43.358;1.248;2023-05-10T11:05:44;16.00;68.80
51383;DHT22;37475;43.358;1.248;2023-05-10T11:08:19;15.70;72.20
51383;DHT22;37475;43.358;1.248;2023-05-10T11:13:38;15.70;73.40
51383;DHT22;37475;43.358;1.248;2023-05-10T11:19:02;16.10;71.00
51383;DHT22;37475;43.358;1.248;2023-05-10T11:21:31;16.60;71.60
51383;DHT22;37475;43.358;1.248;2023-05-10T11:23:59;16.50;67.90
51383;DHT22;37475;43.358;1.248;2023-05-10T11:26:35;16.20;67.80
51383;DHT22;37475;43.358;1.248;2023-05-10T11:29:01;16.10;66.50
51383;DHT22;37475;43.358;1.248;2023-05-10T11:31:28;16.20;65.90
51383;DHT22;37475;43.358;1.248;2023-05-10T11:33:56;16.10;69.60
51383;DHT22;37475;43.358;1.248;2023-05-10T11:36:33;15.70;75.40
51383;DHT22;37475;43.358;1.248;2023-05-10T11:39:00;14.30;77.80
51383;DHT22;37475;43.358;1.248;2023-05-10T11:41:27;13.90;81.90
51383;DHT22;37475;43.358;1.248;2023-05-10T11:43:54;13.60;83.00
51383;DHT22;37475;43.358;1.248;2023-05-10T11:46:23;13.60;84.40
51383;DHT22;37475;43.358;1.248;2023-05-10T11:48:59;13.80;84.80
51383;DHT22;37475;43.358;1.248;2023-05-10T11:51:27;13.60;84.10
51383;DHT22;37475;43.358;1.248;2023-05-10T11:53:54;13.80;85.40
51383;DHT22;37475;43.358;1.248;2023-05-10T11:56:21;13.60;85.50
51383;DHT22;37475;43.358;1.248;2023-05-10T11:58:56;13.50;84.60
51383;DHT22;37475;43.358;1.248;2023-05-10T12:01:24;13.40;84.40
51383;DHT22;37475;43.358;1.248;2023-05-10T12:03:53;13.50;85.70
51383;DHT22;37475;43.358;1.248;2023-05-10T12:06:20;13.50;83.90
51383;DHT22;37475;43.358;1.248;2023-05-10T12:08:48;13.60;83.20
51383;DHT22;37475;43.358;1.248;2023-05-10T12:11:17;14.00;83.90
51383;DHT22;37475;43.358;1.248;2023-05-10T12:13:44;14.00;81.50
51383;DHT22;37475;43.358;1.248;2023-05-10T12:18:44;14.10;78.80
51383;DHT22;37475;43.358;1.248;2023-05-10T12:21:11;14.20;78.40
51383;DHT22;37475;43.358;1.248;2023-05-10T12:23:40;14.20;79.10
51383;DHT22;37475;43.358;1.248;2023-05-10T12:26:09;14.60;80.10
51383;DHT22;37475;43.358;1.248;2023-05-10T12:28:38;14.60;80.60
51383;DHT22;37475;43.358;1.248;2023-05-10T12:31:05;14.70;77.60
51383;DHT22;37475;43.358;1.248;2023-05-10T12:33:39;14.90;79.80
51383;DHT22;37475;43.358;1.248;2023-05-10T12:36:12;15.00;76.70
51383;DHT22;37475;43.358;1.248;2023-05-10T12:38:44;15.40;78.20
51383;DHT22;37475;43.358;1.248;2023-05-10T12:41:15;15.60;77.80
51383;DHT22;37475;43.358;1.248;2023-05-10T12:43:42;15.70;77.40
51383;DHT22;37475;43.358;1.248;2023-05-10T12:46:16;15.80;73.00
51383;DHT22;37475;43.358;1.248;2023-05-10T12:48:44;15.80;75.30
51383;DHT22;37475;43.358;1.248;2023-05-10T12:51:10;15.80;69.90
51383;DHT22;37475;43.358;1.248;2023-05-10T12:53:42;15.80;71.10
51383;DHT22;37475;43.358;1.248;2023-05-10T12:56:11;16.00;70.00
51383;DHT22;37475;43.358;1.248;2023-05-10T12:58:36;16.10;70.10
51383;DHT22;37475;43.358;1.248;2023-05-10T13:01:05;16.10;69.20
51383;DHT22;37475;43.358;1.248;2023-05-10T13:03:30;15.60;71.90
51383;DHT22;37475;43.358;1.248;2023-05-10T13:05:56;15.60;71.00
51383;DHT22;37475;43.358;1.248;2023-05-10T13:08:22;15.70;70.40
51383;DHT22;37475;43.358;1.248;2023-05-10T13:10:48;15.80;71.40
51383;DHT22;37475;43.358;1.248;2023-05-10T13:13:15;15.70;69.10
51383;DHT22;37475;43.358;1.248;2023-05-10T13:15:40;15.70;71.80
51383;DHT22;37475;43.358;1.248;2023-05-10T13:18:06;15.90;69.70
51383;DHT22;37475;43.358;1.248;2023-05-10T13:20:32;16.30;69.20
51383;DHT22;37475;43.358;1.248;2023-05-10T13:22:58;16.40;65.70
51383;DHT22;37475;43.358;1.248;2023-05-10T13:25:23;16.60;65.90
51383;DHT22;37475;43.358;1.248;2023-05-10T13:27:49;16.70;65.70
51383;DHT22;37475;43.358;1.248;2023-05-10T13:30:16;16.80;67.20
51383;DHT22;37475;43.358;1.248;2023-05-10T13:32:42;16.60;65.80
51383;DHT22;37475;43.358;1.248;2023-05-10T13:35:08;16.60;65.00
51383;DHT22;37475;43.358;1.248;2023-05-10T13:37:34;16.90;65.80
51383;DHT22;37475;43.358;1.248;2023-05-10T13:40:03;17.50;65.20
51383;DHT22;37475;43.358;1.248;2023-05-10T13:42:29;18.40;62.10
51383;DHT22;37475;43.358;1.248;2023-05-10T13:44:57;18.70;63.00
51383;DHT22;37475;43.358;1.248;2023-05-10T13:47:22;18.60;61.30
51383;DHT22;37475;43.358;1.248;2023-05-10T13:49:48;18.10;62.40
51383;DHT22;37475;43.358;1.248;2023-05-10T13:52:14;17.80;65.60
51383;DHT22;37475;43.358;1.248;2023-05-10T13:54:41;17.60;65.10
51383;DHT22;37475;43.358;1.248;2023-05-10T13:57:06;17.20;65.30
51383;DHT22;37475;43.358;1.248;2023-05-10T13:59:32;16.60;70.10
51383;DHT22;37475;43.358;1.248;2023-05-10T14:01:59;17.10;68.80
51383;DHT22;37475;43.358;1.248;2023-05-10T14:04:25;17.70;67.90
51383;DHT22;37475;43.358;1.248;2023-05-10T14:06:50;18.10;62.00
51383;DHT22;37475;43.358;1.248;2023-05-10T14:09:18;18.40;61.30
51383;DHT22;37475;43.358;1.248;2023-05-10T14:11:44;18.50;65.70
51383;DHT22;37475;43.358;1.248;2023-05-10T14:14:11;18.20;63.00
51383;DHT22;37475;43.358;1.248;2023-05-10T14:16:42;18.80;59.40
51383;DHT22;37475;43.358;1.248;2023-05-10T14:19:09;18.50;59.30
51383;DHT22;37475;43.358;1.248;2023-05-10T14:21:35;17.80;59.90
51383;DHT22;37475;43.358;1.248;2023-05-10T14:24:00;17.60;61.60
51383;DHT22;37475;43.358;1.248;2023-05-10T14:26:26;17.60;57.90
51383;DHT22;37475;43.358;1.248;2023-05-10T14:28:52;17.50;60.70
51383;DHT22;37475;43.358;1.248;2023-05-10T14:31:18;17.30;62.00
51383;DHT22;37475;43.358;1.248;2023-05-10T14:33:46;17.40;63.20
51383;DHT22;37475;43.358;1.248;2023-05-10T14:36:12;17.80;63.20
51383;DHT22;37475;43.358;1.248;2023-05-10T14:38:39;17.30;60.50
51383;DHT22;37475;43.358;1.248;2023-05-10T14:41:05;17.30;61.40
51383;DHT22;37475;43.358;1.248;2023-05-10T14:43:31;17.90;63.30
51383;DHT22;37475;43.358;1.248;2023-05-10T14:45:57;18.20;57.50
51383;DHT22;37475;43.358;1.248;2023-05-10T14:48:23;18.30;58.70
51383;DHT22;37475;43.358;1.248;2023-05-10T14:50:49;18.00;60.20
51383;DHT22;37475;43.358;1.248;2023-05-10T14:53:16;18.30;59.90
51383;DHT22;37475;43.358;1.248;2023-05-10T14:55:42;18.60;59.20
51383;DHT22;37475;43.358;1.248;2023-05-10T14:58:07;19.00;57.30
51383;DHT22;37475;43.358;1.248;2023-05-10T15:00:33;19.50;59.00
51383;DHT22;37475;43.358;1.248;2023-05-10T15:02:59;18.70;57.30
51383;DHT22;37475;43.358;1.248;2023-05-10T15:05:25;19.30;55.70
51383;DHT22;37475;43.358;1.248;2023-05-10T15:07:51;19.60;58.70
51383;DHT22;37475;43.358;1.248;2023-05-10T15:10:17;18.90;55.60
51383;DHT22;37475;43.358;1.248;2023-05-10T15:12:43;18.60;57.80
51383;DHT22;37475;43.358;1.248;2023-05-10T15:15:09;19.20;55.90
51383;DHT22;37475;43.358;1.248;2023-05-10T15:17:34;19.10;54.70
51383;DHT22;37475;43.358;1.248;2023-05-10T15:20:01;19.50;57.00
51383;DHT22;37475;43.358;1.248;2023-05-10T15:22:30;20.20;51.80
51383;DHT22;37475;43.358;1.248;2023-05-10T15:24:57;20.30;52.20
51383;DHT22;37475;43.358;1.248;2023-05-10T15:27:25;19.00;54.40
51383;DHT22;37475;43.358;1.248;2023-05-10T15:29:51;18.40;55.60
51383;DHT22;37475;43.358;1.248;2023-05-10T15:32:17;18.40;57.40
51383;DHT22;37475;43.358;1.248;2023-05-10T15:34:43;17.80;58.00
51383;DHT22;37475;43.358;1.248;2023-05-10T15:37:08;17.30;61.80
51383;DHT22;37475;43.358;1.248;2023-05-10T15:39:35;17.10;64.10
51383;DHT22;37475;43.358;1.248;2023-05-10T15:42:00;17.10;63.20
51383;DHT22;37475;43.358;1.248;2023-05-10T15:44:26;17.10;63.70
51383;DHT22;37475;43.358;1.248;2023-05-10T15:46:52;16.90;63.90
51383;DHT22;37475;43.358;1.248;2023-05-10T15:49:18;17.00;63.40
51383;DHT22;37475;43.358;1.248;2023-05-10T15:51:44;17.00;63.60
51383;DHT22;37475;43.358;1.248;2023-05-10T15:54:09;16.80;64.10
51383;DHT22;37475;43.358;1.248;2023-05-10T15:56:35;16.70;63.40
51383;DHT22;37475;43.358;1.248;2023-05-10T15:59:01;16.80;64.60
51383;DHT22;37475;43.358;1.248;2023-05-10T16:01:28;16.60;65.70
51383;DHT22;37475;43.358;1.248;2023-05-10T16:03:55;16.60;64.50
51383;DHT22;37475;43.358;1.248;2023-05-10T16:06:21;16.50;64.30
51383;DHT22;37475;43.358;1.248;2023-05-10T16:08:46;16.50;64.30
51383;DHT22;37475;43.358;1.248;2023-05-10T16:11:12;16.60;64.50
51383;DHT22;37475;43.358;1.248;2023-05-10T16:13:38;16.60;63.30
51383;DHT22;37475;43.358;1.248;2023-05-10T16:16:04;16.60;63.90
51383;DHT22;37475;43.358;1.248;2023-05-10T16:18:31;16.60;66.80